createdAt,value
2018-09-11T00:00:12.016Z,7.50
2018-09-11T00:04:20.160Z,6.80
2018-09-11T00:08:28.300Z,8.63
2018-09-11T00:12:36.412Z,8.73
2018-09-11T00:16:44.543Z,6.40
2018-09-11T00:20:52.683Z,5.80
2018-09-11T00:25:00.867Z,7.93
2018-09-11T00:29:09.027Z,6.23
2018-09-11T00:33:17.139Z,6.10
2018-09-11T00:37:25.252Z,4.70
2018-09-11T00:41:33.367Z,7.37
2018-09-11T00:45:41.512Z,5.43
2018-09-11T00:49:50.011Z,5.83
2018-09-11T00:53:58.136Z,9.73
2018-09-11T00:58:06.279Z,10.13
2018-09-11T01:02:14.419Z,6.97
2018-09-11T01:06:22.539Z,9.47
2018-09-11T01:10:30.671Z,6.50
2018-09-11T01:14:38.853Z,6.57
2018-09-11T01:18:47.001Z,7.20
2018-09-11T01:22:55.159Z,7.73
2018-09-11T01:27:03.305Z,7.53
2018-09-11T01:31:11.476Z,5.40
2018-09-11T01:35:19.961Z,8.33
2018-09-11T01:39:28.112Z,5.13
2018-09-11T01:43:36.272Z,5.57
2018-09-11T01:47:44.445Z,6.53
2018-09-11T01:51:52.590Z,5.53
2018-09-11T01:56:00.758Z,7.80
2018-09-11T02:00:14.416Z,7.00
2018-09-11T02:04:22.576Z,6.07
2018-09-11T02:08:30.733Z,5.33
2018-09-11T02:12:38.936Z,12.23
2018-09-11T02:16:47.096Z,8.67
2018-09-11T02:20:55.284Z,6.20
2018-09-11T02:25:03.589Z,7.90
2018-09-11T02:29:11.808Z,7.40
2018-09-11T02:33:19.992Z,5.37
2018-09-11T02:37:28.159Z,5.33
2018-09-11T02:41:36.327Z,4.93
2018-09-11T02:45:44.501Z,6.27
2018-09-11T02:49:52.710Z,6.57
2018-09-11T02:54:00.871Z,8.63
2018-09-11T02:58:09.036Z,6.40
2018-09-11T03:02:17.257Z,7.13
2018-09-11T03:06:25.422Z,5.40
2018-09-11T03:10:33.597Z,6.73
2018-09-11T03:14:41.815Z,5.33
2018-09-11T03:18:50.034Z,5.90
2018-09-11T03:22:58.184Z,12.60
2018-09-11T03:27:06.380Z,8.43
2018-09-11T03:31:14.543Z,7.90
2018-09-11T03:35:22.708Z,4.90
2018-09-11T03:39:30.889Z,6.13
2018-09-11T03:43:39.060Z,8.33
2018-09-11T03:47:47.249Z,5.97
2018-09-11T03:51:55.425Z,6.10
2018-09-11T03:56:03.592Z,6.40
2018-09-11T04:00:11.771Z,7.40
2018-09-11T04:04:19.937Z,6.47
2018-09-11T04:08:28.118Z,5.97
2018-09-11T04:12:36.301Z,7.60
2018-09-11T04:16:44.475Z,6.80
2018-09-11T04:20:52.681Z,6.80
2018-09-11T04:25:00.930Z,6.17
2018-09-11T04:29:09.120Z,6.00
2018-09-11T04:33:17.295Z,9.00
2018-09-11T04:37:25.465Z,5.90
2018-09-11T04:41:33.623Z,5.17
2018-09-11T04:45:41.805Z,6.20
2018-09-11T04:49:49.976Z,5.27
2018-09-11T04:53:58.169Z,5.80
2018-09-11T04:58:06.595Z,6.20
2018-09-11T05:02:14.860Z,5.97
2018-09-11T05:06:23.048Z,5.50
2018-09-11T05:10:31.205Z,7.10
2018-09-11T05:14:39.373Z,7.23
2018-09-11T05:18:47.540Z,5.37
2018-09-11T05:22:55.729Z,7.30
2018-09-11T05:27:03.916Z,7.43
2018-09-11T05:31:12.088Z,5.33
2018-09-11T05:35:20.242Z,6.50
2018-09-11T05:39:28.411Z,6.27
2018-09-11T05:43:36.601Z,6.30
2018-09-11T05:47:44.769Z,7.50
2018-09-11T05:51:52.953Z,7.70
2018-09-11T05:56:01.115Z,5.07
2018-09-11T06:00:09.295Z,7.73
2018-09-11T06:04:17.440Z,10.93
2018-09-11T06:08:25.592Z,6.97
2018-09-11T06:12:33.747Z,7.50
2018-09-11T06:16:41.897Z,6.03
2018-09-11T06:20:50.036Z,7.30
2018-09-11T06:24:58.181Z,7.03
2018-09-11T06:29:06.344Z,5.50
2018-09-11T06:33:14.472Z,4.97
2018-09-11T06:37:22.620Z,5.23
2018-09-11T06:41:30.769Z,5.93
2018-09-11T06:45:39.044Z,3.93
2018-09-11T06:49:47.204Z,4.03
2018-09-11T06:53:55.344Z,4.13
2018-09-11T06:58:03.499Z,3.97
2018-09-11T07:02:11.673Z,4.20
2018-09-11T07:06:19.852Z,4.20
2018-09-11T07:10:28.032Z,4.77
2018-09-11T07:14:36.249Z,4.20
2018-09-11T07:18:44.400Z,6.80
2018-09-11T07:22:52.585Z,4.50
2018-09-11T07:27:00.753Z,7.03
2018-09-11T07:31:08.909Z,4.20
2018-09-11T07:35:17.125Z,4.17
2018-09-11T07:39:25.284Z,4.07
2018-09-11T07:43:33.460Z,3.77
2018-09-11T07:47:41.627Z,3.23
2018-09-11T07:51:49.798Z,3.77
2018-09-11T07:55:57.972Z,3.40
2018-09-11T08:00:06.813Z,3.67
2018-09-11T08:04:14.980Z,5.03
2018-09-11T08:08:23.219Z,4.80
2018-09-11T08:12:31.384Z,5.87
2018-09-11T08:16:39.552Z,12.90
2018-09-11T08:20:47.733Z,4.20
2018-09-11T08:24:55.937Z,4.60
2018-09-11T08:29:04.129Z,5.00
2018-09-11T08:33:12.301Z,4.45
2018-09-11T08:37:20.469Z,4.27
2018-09-11T08:41:28.645Z,4.00
2018-09-11T08:45:36.853Z,4.30
2018-09-11T08:49:45.004Z,5.60
2018-09-11T08:53:53.164Z,4.40
2018-09-11T08:58:01.337Z,7.27
2018-09-11T09:02:09.515Z,6.00
2018-09-11T09:06:17.673Z,5.53
2018-09-11T09:10:26.002Z,7.73
2018-09-11T09:14:34.161Z,5.47
2018-09-11T09:18:42.309Z,4.70
2018-09-11T09:22:50.476Z,6.20
2018-09-11T09:26:58.682Z,4.40
2018-09-11T09:31:06.764Z,4.63
2018-09-11T09:35:14.916Z,3.90
2018-09-11T09:39:23.109Z,5.53
2018-09-11T09:43:31.276Z,5.53
2018-09-11T09:47:39.444Z,4.20
2018-09-11T09:51:47.610Z,8.47
2018-09-11T09:55:55.743Z,7.70
2018-09-11T10:00:03.931Z,12.60
2018-09-11T10:04:12.092Z,5.03
2018-09-11T10:08:20.269Z,3.50
2018-09-11T10:12:28.461Z,6.13
2018-09-11T10:16:36.633Z,4.53
2018-09-11T10:20:44.831Z,4.93
2018-09-11T10:24:53.032Z,3.93
2018-09-11T10:29:01.210Z,4.90
2018-09-11T10:33:09.372Z,4.73
2018-09-11T10:37:17.552Z,3.90
2018-09-11T10:41:25.716Z,5.30
2018-09-11T10:45:33.888Z,4.43
2018-09-11T10:49:42.068Z,4.10
2018-09-11T10:53:50.217Z,4.23
2018-09-11T10:57:58.395Z,4.57
2018-09-11T11:02:06.571Z,3.77
2018-09-11T11:06:14.751Z,4.07
2018-09-11T11:10:22.944Z,4.20
2018-09-11T11:14:31.122Z,4.33
2018-09-11T11:18:39.289Z,4.40
2018-09-11T11:22:47.493Z,3.83
2018-09-11T11:26:55.744Z,4.07
2018-09-11T11:31:03.858Z,3.40
2018-09-11T11:35:12.026Z,3.77
2018-09-11T11:39:20.204Z,4.40
2018-09-11T11:43:28.385Z,3.50
2018-09-11T11:47:36.563Z,4.27
2018-09-11T11:51:44.773Z,4.50
2018-09-11T11:55:52.973Z,3.13
2018-09-11T12:00:01.147Z,3.30
2018-09-11T12:04:09.293Z,3.70
2018-09-11T12:08:17.466Z,4.07
2018-09-11T12:12:25.666Z,3.50
2018-09-11T12:16:33.809Z,3.40
2018-09-11T12:20:41.972Z,3.40
2018-09-11T12:24:50.138Z,4.00
2018-09-11T12:28:58.284Z,5.47
2018-09-11T12:33:06.760Z,4.30
2018-09-11T12:37:14.929Z,3.67
2018-09-11T12:41:24.129Z,3.40
2018-09-11T12:45:32.279Z,4.45
2018-09-11T12:49:41.186Z,4.03
2018-09-11T12:53:49.345Z,3.97
2018-09-11T12:57:57.501Z,3.33
2018-09-11T13:02:05.664Z,3.40
2018-09-11T13:06:13.826Z,3.77
2018-09-11T13:10:21.743Z,3.73
2018-09-11T13:14:29.900Z,5.00
2018-09-11T13:18:38.057Z,3.30
2018-09-11T13:22:46.216Z,3.47
2018-09-11T13:26:54.391Z,4.90
2018-09-11T13:31:02.881Z,3.80
2018-09-11T13:35:11.031Z,3.40
2018-09-11T13:39:19.205Z,3.42
2018-09-11T13:43:27.362Z,3.40
2018-09-11T13:47:35.417Z,3.77
2018-09-11T13:51:43.442Z,3.63
2018-09-11T13:55:51.591Z,5.17
2018-09-11T13:59:59.731Z,4.13
2018-09-11T14:04:07.897Z,4.83
2018-09-11T14:08:16.056Z,7.30
2018-09-11T14:12:24.217Z,3.87
2018-09-11T14:16:32.384Z,5.13
2018-09-11T14:20:40.524Z,6.73
2018-09-11T14:24:48.678Z,5.90
2018-09-11T14:28:56.833Z,4.13
2018-09-11T14:33:04.996Z,8.10
2018-09-11T14:37:12.907Z,4.43
2018-09-11T14:41:21.080Z,11.10
2018-09-11T14:45:29.241Z,3.93
2018-09-11T14:49:37.428Z,8.20
2018-09-11T14:53:45.597Z,4.47
2018-09-11T14:57:53.761Z,13.27
2018-09-11T15:02:01.933Z,5.97
2018-09-11T15:06:10.110Z,3.57
2018-09-11T15:10:18.285Z,4.10
2018-09-11T15:14:26.463Z,4.80
2018-09-11T15:18:34.637Z,4.30
2018-09-11T15:22:42.881Z,4.20
2018-09-11T15:26:51.188Z,4.17
2018-09-11T15:30:59.348Z,4.60
2018-09-11T15:35:07.535Z,5.10
2018-09-11T15:39:15.720Z,4.17
2018-09-11T15:43:23.918Z,4.00
2018-09-11T15:47:32.109Z,4.23
2018-09-11T15:51:40.288Z,4.00
2018-09-11T15:55:48.507Z,4.83
2018-09-11T15:59:56.644Z,9.10
2018-09-11T16:04:04.823Z,5.87
2018-09-11T16:08:12.977Z,11.47
2018-09-11T16:12:21.150Z,21.27
2018-09-11T16:16:29.325Z,16.17
2018-09-11T16:20:37.481Z,8.40
2018-09-11T16:24:45.419Z,5.90
2018-09-11T16:28:53.346Z,5.40
2018-09-11T16:33:01.280Z,5.57
2018-09-11T16:37:09.454Z,4.50
2018-09-11T16:41:17.617Z,4.40
2018-09-11T16:45:25.779Z,5.33
2018-09-11T16:49:33.940Z,5.17
2018-09-11T16:53:42.157Z,4.03
2018-09-11T16:57:50.324Z,3.93
2018-09-11T17:01:58.529Z,4.83
2018-09-11T17:06:06.708Z,4.20
2018-09-11T17:10:14.861Z,4.27
2018-09-11T17:14:23.016Z,6.90
2018-09-11T17:18:31.173Z,4.10
2018-09-11T17:22:39.364Z,5.03
2018-09-11T17:26:47.522Z,4.30
2018-09-11T17:30:55.680Z,4.50
2018-09-11T17:35:03.992Z,6.80
2018-09-11T17:39:12.931Z,6.40
2018-09-11T17:43:21.097Z,4.23
2018-09-11T17:47:29.249Z,4.53
2018-09-11T17:51:37.422Z,4.17
2018-09-11T17:55:45.638Z,7.13
2018-09-11T17:59:53.797Z,4.70
2018-09-11T18:04:01.972Z,6.10
2018-09-11T18:08:10.156Z,4.47
2018-09-11T18:12:18.337Z,9.93
2018-09-11T18:16:26.515Z,5.93
2018-09-11T18:20:34.691Z,5.50
2018-09-11T18:24:42.881Z,4.50
2018-09-11T18:28:51.117Z,7.43
2018-09-11T18:32:59.285Z,13.27
2018-09-11T18:37:07.762Z,22.20
2018-09-11T18:41:15.930Z,27.30
2018-09-11T18:45:24.099Z,26.20
2018-09-11T18:49:32.309Z,71.80
2018-09-11T18:53:40.468Z,43.17
2018-09-11T18:57:48.673Z,20.17
2018-09-11T19:01:56.929Z,46.33
2018-09-11T19:06:05.126Z,12.53
2018-09-11T19:10:13.309Z,44.58
2018-09-11T19:14:21.491Z,49.27
2018-09-11T19:18:29.665Z,52.47
2018-09-11T19:22:37.854Z,15.40
2018-09-11T19:26:46.036Z,65.93
2018-09-11T19:30:54.196Z,20.00
2018-09-11T19:35:02.410Z,43.50
2018-09-11T19:39:10.852Z,17.27
2018-09-11T19:43:19.038Z,8.93
2018-09-11T19:47:27.222Z,6.30
2018-09-11T19:51:35.393Z,7.73
2018-09-11T19:55:43.561Z,6.53
2018-09-11T19:59:51.770Z,8.83
2018-09-11T20:03:59.933Z,12.63
2018-09-11T20:08:08.081Z,7.03
2018-09-11T20:12:16.273Z,7.42
2018-09-11T20:16:24.444Z,12.60
2018-09-11T20:20:32.609Z,10.70
2018-09-11T20:24:40.779Z,31.43
2018-09-11T20:28:48.932Z,21.53
2018-09-11T20:32:57.098Z,18.67
2018-09-11T20:37:05.268Z,13.40
2018-09-11T20:41:13.429Z,15.63
2018-09-11T20:45:21.606Z,12.10
2018-09-11T20:49:29.744Z,12.20
2018-09-11T20:53:37.910Z,44.07
2018-09-11T20:57:46.073Z,9.50
2018-09-11T21:01:54.258Z,6.13
2018-09-11T21:06:02.469Z,7.53
2018-09-11T21:10:10.616Z,7.17
2018-09-11T21:14:18.770Z,5.57
2018-09-11T21:18:26.934Z,6.90
2018-09-11T21:22:35.094Z,6.30
2018-09-11T21:26:43.254Z,6.10
2018-09-11T21:30:51.412Z,5.47
2018-09-11T21:34:59.601Z,5.97
2018-09-11T21:39:09.476Z,5.20
2018-09-11T21:43:17.662Z,7.23
2018-09-11T21:47:25.812Z,6.40
2018-09-11T21:51:33.975Z,6.23
2018-09-11T21:55:42.131Z,5.40
2018-09-11T21:59:50.266Z,5.73
2018-09-11T22:03:58.449Z,7.00
2018-09-11T22:08:06.617Z,7.20
2018-09-11T22:12:14.772Z,4.77
2018-09-11T22:16:22.957Z,6.73
2018-09-11T22:20:31.126Z,8.80
2018-09-11T22:24:39.338Z,5.93
2018-09-11T22:28:47.485Z,7.73
2018-09-11T22:32:55.670Z,5.60
2018-09-11T22:37:03.844Z,7.00
2018-09-11T22:41:12.009Z,5.60
2018-09-11T22:45:20.213Z,5.93
2018-09-11T22:49:28.427Z,9.43
2018-09-11T22:53:36.889Z,6.47
2018-09-11T22:57:45.050Z,6.10
2018-09-11T23:01:53.225Z,8.20
2018-09-11T23:06:01.405Z,7.30
2018-09-11T23:10:09.579Z,8.47
2018-09-11T23:14:17.752Z,5.73
2018-09-11T23:18:25.925Z,7.47
2018-09-11T23:22:34.097Z,7.10
2018-09-11T23:26:42.268Z,7.00
2018-09-11T23:30:50.477Z,5.13
2018-09-11T23:34:58.637Z,6.37
2018-09-11T23:39:07.595Z,8.13
2018-09-11T23:43:15.763Z,7.90
2018-09-11T23:47:23.961Z,4.87
2018-09-11T23:51:32.145Z,7.80
2018-09-11T23:55:40.316Z,8.20
2018-09-11T23:59:48.484Z,5.53
